Check out our new BloomSky Weather System.

Active alerts


No alerts


Thunder radar  blitzortung!


Rain radar more information rain snow radar


Visit our other weather sites:

Template documentation
and downloads

And another site



Weather Underground History page Text

Daily Summary for April 5, 2017 Units:  English    Metric   Both
« Previous Day
Next Day »
Daily Weekly Monthly Yearly Custom
  High: Low: Average:
Temperature: 74.1 °F 55.0 °F 66.5 °F
Dew Point: 71.4 °F 41.2 °F 51.2 °F
Humidity: 95 % 35 % 61 %
Wind Speed: 15.0 mph 0.0 mph 4.7 mph
Wind Gust: 22.0 mph - -
Wind:- - WNW
Pressure: 30.12 in 29.69 in -
Precipitation: 0.01 in    
Historical Graphs
 
 
Tabular Data for April 5, 2017
Time Temperature Dew Point Pressure Wind Wind Speed Wind Gust Humidity Rainfall Rate (Hourly)
00:02 73.8 °F 70.7 °F 29.70 in SE 3.0 mph 7.0 mph 90 % 0.00 in
00:07 73.9 °F 70.9 °F 29.70 in South 4.0 mph 7.0 mph 90 % 0.00 in
00:12 73.9 °F 70.9 °F 29.70 in SE 3.0 mph 7.0 mph 90 % 0.00 in
00:17 73.9 °F 70.9 °F 29.70 in SSE 2.0 mph 7.0 mph 90 % 0.00 in
00:22 74.1 °F 71.2 °F 29.70 in South 5.0 mph 10.0 mph 91 % 0.00 in
00:27 74.1 °F 71.1 °F 29.70 in South 4.0 mph 10.0 mph 90 % 0.00 in
00:32 74.1 °F 71.1 °F 29.70 in SSE 4.0 mph 15.0 mph 90 % 0.00 in
00:37 74.1 °F 71.1 °F 29.70 in South 3.0 mph 15.0 mph 90 % 0.00 in
00:42 74.1 °F 71.1 °F 29.70 in SE 3.0 mph 15.0 mph 90 % 0.00 in
00:47 74.1 °F 71.1 °F 29.70 in SSE 4.0 mph 12.0 mph 90 % 0.00 in
00:52 74.1 °F 71.1 °F 29.69 in ESE 7.0 mph 9.0 mph 90 % 0.00 in
00:57 73.9 °F 71.1 °F 29.69 in SSE 6.0 mph 8.0 mph 91 % 0.00 in
01:02 73.9 °F 71.1 °F 29.69 in SW 5.0 mph 9.0 mph 91 % 0.00 in
01:07 73.9 °F 71.1 °F 29.70 in South 4.0 mph 9.0 mph 91 % 0.00 in
01:12 73.8 °F 70.9 °F 29.70 in SSW 5.0 mph 9.0 mph 91 % 0.00 in
01:17 73.6 °F 70.7 °F 29.70 in SSW 1.0 mph 9.0 mph 91 % 0.00 in
01:22 73.6 °F 70.7 °F 29.70 in SW 4.0 mph 8.0 mph 91 % 0.00 in
01:27 73.6 °F 71.1 °F 29.70 in SSE 1.0 mph 10.0 mph 92 % 0.00 in
01:32 73.6 °F 71.1 °F 29.70 in SSW 5.0 mph 10.0 mph 92 % 0.00 in
01:37 73.6 °F 71.1 °F 29.70 in SSW 4.0 mph 10.0 mph 92 % 0.00 in
01:42 73.6 °F 71.1 °F 29.70 in SSW 2.0 mph 9.0 mph 92 % 0.00 in
01:47 73.6 °F 71.1 °F 29.70 in SW 5.0 mph 9.0 mph 92 % 0.00 in
01:52 73.4 °F 70.9 °F 29.70 in SW 3.0 mph 7.0 mph 92 % 0.00 in
01:57 73.4 °F 70.9 °F 29.71 in Calm   6.0 mph 92 % 0.00 in
02:02 73.2 °F 70.7 °F 29.71 in SSW 1.0 mph 6.0 mph 92 % 0.00 in
02:07 73.4 °F 70.9 °F 29.71 in SSW 2.0 mph 5.0 mph 92 % 0.00 in
02:12 73.4 °F 70.9 °F 29.71 in Calm   4.0 mph 92 % 0.00 in
02:17 73.4 °F 70.9 °F 29.71 in Calm   4.0 mph 92 % 0.00 in
02:22 73.2 °F 70.7 °F 29.71 in SSW 2.0 mph 3.0 mph 92 % 0.00 in
02:27 73.2 °F 70.7 °F 29.72 in SSW 3.0 mph 5.0 mph 92 % 0.00 in
02:32 73.2 °F 71.1 °F 29.72 in SW 1.0 mph 5.0 mph 93 % 0.00 in
02:37 73.4 °F 71.2 °F 29.72 in WSW 2.0 mph 5.0 mph 93 % 0.00 in
02:42 73.4 °F 71.2 °F 29.73 in Calm   4.0 mph 93 % 0.00 in
02:47 73.6 °F 71.4 °F 29.74 in Calm   5.0 mph 93 % 0.00 in
02:52 73.6 °F 71.4 °F 29.74 in ENE 2.0 mph 5.0 mph 93 % 0.00 in
02:57 73.6 °F 71.4 °F 29.74 in West 2.0 mph 6.0 mph 93 % 0.00 in
03:02 73.6 °F 71.4 °F 29.74 in SSW 1.0 mph 6.0 mph 93 % 0.00 in
03:07 73.4 °F 71.2 °F 29.74 in SSE 1.0 mph 6.0 mph 93 % 0.00 in
03:12 73.0 °F 71.2 °F 29.75 in WSW 1.0 mph 6.0 mph 94 % 0.00 in
03:17 73.0 °F 71.2 °F 29.74 in Calm   6.0 mph 94 % 0.01 in
03:22 72.9 °F 71.1 °F 29.74 in SW 3.0 mph 6.0 mph 94 % 0.01 in
03:27 72.7 °F 71.2 °F 29.74 in WNW 2.0 mph 5.0 mph 95 % 0.01 in
03:32 72.7 °F 71.2 °F 29.74 in West 1.0 mph 5.0 mph 95 % 0.01 in
03:37 72.3 °F 70.5 °F 29.75 in SSW 1.0 mph 6.0 mph 94 % 0.01 in
03:42 72.1 °F 70.7 °F 29.75 in Calm   9.0 mph 95 % 0.01 in
03:47 72.0 °F 70.2 °F 29.75 in West 3.0 mph 9.0 mph 94 % 0.01 in
03:52 71.6 °F 69.8 °F 29.75 in SSE 1.0 mph 9.0 mph 94 % 0.01 in
03:57 71.4 °F 69.6 °F 29.75 in NNW 1.0 mph 8.0 mph 94 % 0.01 in
04:02 71.2 °F 69.1 °F 29.75 in WNW 1.0 mph 5.0 mph 93 % 0.01 in
04:07 71.1 °F 68.5 °F 29.75 in NW 2.0 mph 6.0 mph 92 % 0.01 in
04:12 71.1 °F 68.5 °F 29.75 in NW 3.0 mph 6.0 mph 92 % 0.01 in
04:17 71.1 °F 68.0 °F 29.75 in NW 3.0 mph 6.0 mph 90 % 0.00 in
04:22 71.1 °F 67.6 °F 29.75 in NNW 2.0 mph 6.0 mph 89 % 0.00 in
04:27 71.1 °F 67.3 °F 29.75 in Calm   6.0 mph 88 % 0.00 in
04:32 70.9 °F 67.1 °F 29.75 in NW 3.0 mph 6.0 mph 88 % 0.00 in
04:37 70.7 °F 66.6 °F 29.76 in NNW 1.0 mph 5.0 mph 87 % 0.00 in
04:42 70.5 °F 66.2 °F 29.76 in NW 2.0 mph 6.0 mph 86 % 0.00 in
04:47 70.3 °F 65.3 °F 29.77 in NNW 6.0 mph 6.0 mph 84 % 0.00 in
04:52 70.3 °F 64.6 °F 29.77 in WNW 3.0 mph 8.0 mph 82 % 0.00 in
04:58 70.2 °F 64.0 °F 29.77 in West 2.0 mph 9.0 mph 81 % 0.00 in
05:03 70.0 °F 63.9 °F 29.78 in WNW 3.0 mph 9.0 mph 81 % 0.00 in
05:08 69.6 °F 63.9 °F 29.78 in NW 4.0 mph 9.0 mph 82 % 0.00 in
05:13 69.3 °F 63.9 °F 29.79 in NNW 1.0 mph 9.0 mph 83 % 0.00 in
05:18 68.7 °F 62.6 °F 29.80 in NW 4.0 mph 8.0 mph 81 % 0.00 in
05:23 67.8 °F 58.1 °F 29.80 in WNW 8.0 mph 14.0 mph 71 % 0.00 in
05:28 67.1 °F 57.4 °F 29.81 in NNW 6.0 mph 16.0 mph 71 % 0.00 in
05:33 66.6 °F 57.6 °F 29.81 in NW 7.0 mph 16.0 mph 73 % 0.00 in
05:38 66.0 °F 56.7 °F 29.82 in NW 9.0 mph 16.0 mph 72 % 0.00 in
05:43 65.7 °F 56.3 °F 29.82 in North 9.0 mph 16.0 mph 72 % 0.00 in
05:48 65.1 °F 56.3 °F 29.83 in West 7.0 mph 16.0 mph 73 % 0.00 in
05:53 64.6 °F 55.8 °F 29.83 in WNW 7.0 mph 17.0 mph 73 % 0.00 in
05:58 64.0 °F 55.2 °F 29.84 in NNW 10.0 mph 17.0 mph 73 % 0.00 in
06:03 63.5 °F 54.0 °F 29.84 in NW 6.0 mph 17.0 mph 71 % 0.00 in
06:08 63.0 °F 53.4 °F 29.85 in NNW 10.0 mph 14.0 mph 71 % 0.00 in
06:13 62.4 °F 49.6 °F 29.85 in NW 9.0 mph 16.0 mph 63 % 0.00 in
06:18 62.1 °F 49.3 °F 29.86 in NNW 3.0 mph 17.0 mph 63 % 0.00 in
06:23 61.5 °F 48.7 °F 29.87 in NW 4.0 mph 18.0 mph 63 % 0.00 in
06:28 61.2 °F 47.1 °F 29.87 in NW 6.0 mph 18.0 mph 60 % 0.00 in
06:33 61.0 °F 46.9 °F 29.88 in WNW 6.0 mph 19.0 mph 60 % 0.00 in
06:38 60.6 °F 46.6 °F 29.88 in NNW 4.0 mph 19.0 mph 60 % 0.00 in
06:43 60.4 °F 46.9 °F 29.89 in West 5.0 mph 19.0 mph 61 % 0.00 in
06:48 60.3 °F 46.8 °F 29.89 in NNW 4.0 mph 14.0 mph 61 % 0.00 in
06:53 59.9 °F 46.8 °F 29.89 in North 9.0 mph 14.0 mph 62 % 0.00 in
06:58 59.7 °F 46.8 °F 29.89 in WNW 7.0 mph 15.0 mph 62 % 0.00 in
07:03 59.5 °F 46.6 °F 29.89 in NNW 4.0 mph 15.0 mph 62 % 0.00 in
07:08 59.4 °F 46.8 °F 29.90 in NNW 3.0 mph 15.0 mph 63 % 0.00 in
07:13 59.2 °F 46.6 °F 29.90 in NW 5.0 mph 11.0 mph 63 % 0.00 in
07:18 58.8 °F 45.9 °F 29.91 in NNW 4.0 mph 11.0 mph 62 % 0.00 in
07:23 58.8 °F 45.3 °F 29.92 in WNW 10.0 mph 11.0 mph 61 % 0.00 in
07:28 58.6 °F 45.3 °F 29.92 in NNW 5.0 mph 16.0 mph 61 % 0.00 in
07:33 58.5 °F 45.1 °F 29.93 in NW 8.0 mph 16.0 mph 61 % 0.00 in
07:38 58.3 °F 45.0 °F 29.93 in WNW 3.0 mph 16.0 mph 61 % 0.00 in
07:43 58.3 °F 45.0 °F 29.93 in NW 9.0 mph 12.0 mph 61 % 0.00 in
07:48 58.3 °F 45.3 °F 29.94 in NNW 4.0 mph 12.0 mph 62 % 0.00 in
07:53 58.3 °F 46.2 °F 29.94 in NW 3.0 mph 12.0 mph 64 % 0.00 in
07:58 58.3 °F 46.6 °F 29.95 in NW 10.0 mph 11.0 mph 65 % 0.00 in
08:03 58.1 °F 46.4 °F 29.95 in NW 3.0 mph 12.0 mph 65 % 0.00 in
08:08 57.9 °F 45.9 °F 29.95 in NW 13.0 mph 14.0 mph 64 % 0.00 in
08:13 57.9 °F 45.3 °F 29.95 in WNW 11.0 mph 15.0 mph 63 % 0.00 in
08:18 57.9 °F 45.3 °F 29.96 in WNW 9.0 mph 17.0 mph 63 % 0.00 in
08:23 57.7 °F 45.3 °F 29.96 in North 6.0 mph 17.0 mph 63 % 0.00 in
08:28 57.9 °F 45.0 °F 29.97 in WNW 11.0 mph 17.0 mph 62 % 0.00 in
08:33 58.1 °F 45.5 °F 29.97 in WNW 3.0 mph 18.0 mph 63 % 0.00 in
08:38 58.3 °F 45.7 °F 29.97 in NW 9.0 mph 18.0 mph 63 % 0.00 in
08:43 58.5 °F 46.4 °F 29.97 in South 10.0 mph 18.0 mph 64 % 0.00 in
08:48 58.5 °F 46.4 °F 29.98 in WNW 5.0 mph 13.0 mph 64 % 0.00 in
08:54 58.6 °F 46.9 °F 29.99 in NW 6.0 mph 13.0 mph 65 % 0.00 in
08:59 59.0 °F 47.3 °F 29.99 in ENE 3.0 mph 13.0 mph 65 % 0.00 in
09:04 58.8 °F 46.2 °F 29.99 in NW 5.0 mph 13.0 mph 63 % 0.00 in
09:09 58.6 °F 46.6 °F 29.99 in NW 10.0 mph 17.0 mph 64 % 0.00 in
09:14 58.8 °F 46.2 °F 29.99 in ENE 3.0 mph 17.0 mph 63 % 0.00 in
09:19 58.8 °F 45.9 °F 30.00 in WNW 6.0 mph 17.0 mph 62 % 0.00 in
09:24 58.8 °F 46.2 °F 30.00 in NW 11.0 mph 17.0 mph 63 % 0.00 in
09:29 58.8 °F 46.2 °F 30.00 in WNW 9.0 mph 19.0 mph 63 % 0.00 in
09:34 58.8 °F 46.2 °F 30.01 in NNW 9.0 mph 19.0 mph 63 % 0.00 in
09:39 59.2 °F 46.2 °F 30.01 in NNW 6.0 mph 19.0 mph 62 % 0.00 in
09:44 59.4 °F 46.4 °F 30.01 in NNW 5.0 mph 18.0 mph 62 % 0.00 in
09:49 59.5 °F 46.9 °F 30.01 in NNW 5.0 mph 17.0 mph 63 % 0.00 in
09:54 60.1 °F 46.6 °F 30.01 in NW 6.0 mph 16.0 mph 61 % 0.00 in
09:59 59.9 °F 46.0 °F 30.01 in NW 6.0 mph 16.0 mph 60 % 0.00 in
10:04 60.3 °F 46.4 °F 30.01 in NNW 7.0 mph 16.0 mph 60 % 0.00 in
10:09 60.8 °F 47.3 °F 30.01 in NW 3.0 mph 16.0 mph 61 % 0.00 in
10:14 61.3 °F 47.8 °F 30.01 in NNW 5.0 mph 16.0 mph 61 % 0.00 in
10:19 61.3 °F 46.4 °F 30.01 in NW 5.0 mph 13.0 mph 58 % 0.00 in
10:29 61.0 °F 46.0 °F 30.02 in NNW 9.0 mph 17.0 mph 58 % 0.00 in
10:34 60.8 °F 46.4 °F 30.02 in West 4.0 mph 17.0 mph 59 % 0.00 in
10:39 61.3 °F 47.3 °F 30.03 in WSW 7.0 mph 17.0 mph 60 % 0.00 in
10:44 61.5 °F 47.5 °F 30.03 in NNW 6.0 mph 16.0 mph 60 % 0.00 in
10:47 61.5 °F 47.1 °F 30.03 in NNW 4.0 mph 16.0 mph 59 % 0.00 in
10:52 61.9 °F 48.2 °F 30.03 in NW 6.0 mph 16.0 mph 61 % 0.00 in
10:57 62.1 °F 46.2 °F 30.04 in North 10.0 mph 16.0 mph 56 % 0.00 in
11:02 62.1 °F 47.1 °F 30.04 in NW 6.0 mph 16.0 mph 58 % 0.00 in
11:07 61.9 °F 46.9 °F 30.04 in NW 7.0 mph 16.0 mph 58 % 0.00 in
11:12 61.9 °F 46.4 °F 30.04 in NW 7.0 mph 16.0 mph 57 % 0.00 in
11:17 61.3 °F 46.0 °F 30.04 in NW 9.0 mph 22.0 mph 57 % 0.00 in
11:22 61.2 °F 46.2 °F 30.04 in NW 5.0 mph 22.0 mph 58 % 0.00 in
11:27 61.5 °F 47.1 °F 30.04 in NNW 8.0 mph 22.0 mph 59 % 0.00 in
11:32 62.2 °F 47.3 °F 30.04 in NE 2.0 mph 19.0 mph 58 % 0.00 in
11:37 62.8 °F 46.9 °F 30.04 in NNW 4.0 mph 19.0 mph 56 % 0.00 in
11:42 63.9 °F 47.3 °F 30.04 in NW 7.0 mph 16.0 mph 55 % 0.00 in
11:47 64.0 °F 47.1 °F 30.04 in NNW 9.0 mph 16.0 mph 54 % 0.00 in
11:52 64.0 °F 47.1 °F 30.04 in NW 11.0 mph 17.0 mph 54 % 0.00 in
11:57 64.2 °F 47.7 °F 30.04 in NNW 7.0 mph 17.0 mph 55 % 0.00 in
12:02 64.9 °F 47.5 °F 30.04 in NW 10.0 mph 17.0 mph 53 % 0.00 in
12:07 65.3 °F 47.7 °F 30.04 in WNW 9.0 mph 16.0 mph 53 % 0.00 in
12:12 65.1 °F 48.0 °F 30.04 in NW 8.0 mph 16.0 mph 54 % 0.00 in
12:17 65.7 °F 48.0 °F 30.05 in NNE 3.0 mph 16.0 mph 53 % 0.00 in
12:22 66.0 °F 46.8 °F 30.05 in NW 7.0 mph 16.0 mph 50 % 0.00 in
12:27 65.5 °F 47.5 °F 30.05 in NNW 3.0 mph 18.0 mph 52 % 0.00 in
12:32 65.7 °F 47.1 °F 30.04 in NNW 5.0 mph 18.0 mph 51 % 0.00 in
12:37 65.8 °F 47.1 °F 30.04 in North 6.0 mph 18.0 mph 51 % 0.00 in
12:42 65.7 °F 46.6 °F 30.04 in NW 7.0 mph 16.0 mph 50 % 0.00 in
12:47 66.4 °F 48.2 °F 30.04 in NW 6.0 mph 16.0 mph 52 % 0.00 in
12:52 66.7 °F 48.0 °F 30.04 in NW 4.0 mph 16.0 mph 51 % 0.00 in
12:57 66.9 °F 48.2 °F 30.04 in WSW 2.0 mph 16.0 mph 51 % 0.00 in
13:02 67.3 °F 48.6 °F 30.04 in WSW 4.0 mph 16.0 mph 51 % 0.00 in
13:07 67.3 °F 48.6 °F 30.04 in WNW 5.0 mph 15.0 mph 51 % 0.00 in
13:12 67.6 °F 48.4 °F 30.04 in North 6.0 mph 15.0 mph 50 % 0.00 in
13:17 67.5 °F 47.7 °F 30.04 in NW 9.0 mph 18.0 mph 49 % 0.00 in
13:22 67.3 °F 47.5 °F 30.04 in NW 5.0 mph 18.0 mph 49 % 0.00 in
13:27 67.6 °F 47.8 °F 30.04 in NW 5.0 mph 18.0 mph 49 % 0.00 in
13:32 68.0 °F 48.2 °F 30.04 in South 2.0 mph 17.0 mph 49 % 0.00 in
13:37 67.8 °F 48.0 °F 30.04 in NNW 5.0 mph 17.0 mph 49 % 0.00 in
13:42 68.4 °F 48.4 °F 30.04 in WNW 4.0 mph 15.0 mph 49 % 0.00 in
13:43 68.5 °F 48.6 °F 30.04 in NNW 10.0 mph 15.0 mph 49 % 0.00 in
13:48 68.2 °F 47.1 °F 30.04 in NNW 4.0 mph 15.0 mph 47 % 0.00 in
13:53 67.8 °F 48.0 °F 30.04 in WNW 6.0 mph 16.0 mph 49 % 0.00 in
13:58 68.2 °F 47.7 °F 30.03 in North 5.0 mph 16.0 mph 48 % 0.00 in
14:03 68.5 °F 48.0 °F 30.04 in WNW 2.0 mph 17.0 mph 48 % 0.00 in
14:08 68.5 °F 46.9 °F 30.04 in NNW 2.0 mph 17.0 mph 46 % 0.00 in
14:13 68.5 °F 47.5 °F 30.04 in NW 3.0 mph 17.0 mph 47 % 0.00 in
14:18 68.7 °F 47.1 °F 30.04 in NNW 7.0 mph 17.0 mph 46 % 0.00 in
14:23 68.7 °F 47.7 °F 30.04 in NW 10.0 mph 15.0 mph 47 % 0.00 in
14:28 69.3 °F 47.7 °F 30.04 in North 10.0 mph 15.0 mph 46 % 0.00 in
14:33 69.1 °F 46.8 °F 30.03 in NNW 11.0 mph 15.0 mph 45 % 0.00 in
14:38 69.3 °F 46.4 °F 30.03 in NNW 9.0 mph 18.0 mph 44 % 0.00 in
14:43 69.1 °F 46.8 °F 30.04 in NW 8.0 mph 18.0 mph 45 % 0.00 in
14:45 69.1 °F 46.8 °F 30.03 in NNW 8.0 mph 18.0 mph 45 % 0.00 in
14:50 69.3 °F 46.9 °F 30.03 in NNW 12.0 mph 19.0 mph 45 % 0.00 in
14:55 69.4 °F 47.1 °F 30.02 in WNW 5.0 mph 19.0 mph 45 % 0.00 in
15:00 69.6 °F 46.2 °F 30.02 in West 7.0 mph 21.0 mph 43 % 0.00 in
15:05 70.0 °F 47.1 °F 30.02 in NNW 15.0 mph 21.0 mph 44 % 0.00 in
15:10 70.0 °F 46.4 °F 30.03 in NW 13.0 mph 21.0 mph 43 % 0.00 in
15:15 70.0 °F 46.4 °F 30.02 in NW 11.0 mph 20.0 mph 43 % 0.00 in
15:20 70.5 °F 46.9 °F 30.02 in NW 12.0 mph 20.0 mph 43 % 0.00 in
15:25 70.3 °F 46.2 °F 30.02 in NNW 6.0 mph 20.0 mph 42 % 0.00 in
15:30 70.7 °F 45.1 °F 30.02 in NW 3.0 mph 17.0 mph 40 % 0.00 in
15:35 70.9 °F 45.3 °F 30.02 in NW 9.0 mph 17.0 mph 40 % 0.00 in
15:40 70.9 °F 45.3 °F 30.01 in NNW 9.0 mph 18.0 mph 40 % 0.00 in
15:45 70.9 °F 45.3 °F 30.02 in NNW 15.0 mph 18.0 mph 40 % 0.00 in
15:50 70.5 °F 44.4 °F 30.01 in NW 8.0 mph 18.0 mph 39 % 0.00 in
15:55 70.9 °F 45.3 °F 30.01 in WNW 5.0 mph 18.0 mph 40 % 0.00 in
16:00 71.2 °F 46.4 °F 30.01 in NW 6.0 mph 17.0 mph 41 % 0.00 in
16:05 71.4 °F 47.1 °F 30.01 in NNW 3.0 mph 15.0 mph 42 % 0.00 in
16:10 71.4 °F 45.9 °F 30.01 in West 4.0 mph 15.0 mph 40 % 0.00 in
16:15 71.2 °F 46.4 °F 30.01 in WNW 13.0 mph 19.0 mph 41 % 0.00 in
16:20 71.1 °F 46.2 °F 30.01 in NNW 4.0 mph 19.0 mph 41 % 0.00 in
16:25 71.6 °F 46.6 °F 30.01 in WNW 6.0 mph 19.0 mph 41 % 0.00 in
16:30 71.4 °F 46.6 °F 30.01 in WNW 2.0 mph 18.0 mph 41 % 0.00 in
16:35 71.8 °F 46.2 °F 30.01 in NW 4.0 mph 18.0 mph 40 % 0.00 in
16:40 72.0 °F 46.9 °F 30.01 in WNW 6.0 mph 18.0 mph 41 % 0.00 in
16:46 72.3 °F 47.3 °F 30.01 in WNW 7.0 mph 13.0 mph 41 % 0.00 in
16:51 72.3 °F 46.0 °F 30.01 in WNW 6.0 mph 13.0 mph 39 % 0.00 in
16:56 72.0 °F 45.7 °F 30.01 in WNW 10.0 mph 18.0 mph 39 % 0.00 in
17:01 71.6 °F 45.3 °F 30.01 in WNW 13.0 mph 18.0 mph 39 % 0.00 in
17:06 71.6 °F 45.3 °F 30.01 in NW 11.0 mph 18.0 mph 39 % 0.00 in
17:11 71.8 °F 44.8 °F 30.01 in NNE 12.0 mph 15.0 mph 38 % 0.00 in
17:16 71.8 °F 44.8 °F 30.01 in NNW 7.0 mph 14.0 mph 38 % 0.00 in
17:21 72.1 °F 45.1 °F 30.01 in NW 5.0 mph 14.0 mph 38 % 0.00 in
17:26 72.3 °F 45.3 °F 30.01 in West 14.0 mph 14.0 mph 38 % 0.00 in
17:31 72.0 °F 45.0 °F 30.01 in NW 2.0 mph 18.0 mph 38 % 0.00 in
17:36 72.0 °F 45.0 °F 30.01 in NW 6.0 mph 18.0 mph 38 % 0.00 in
17:41 72.0 °F 45.0 °F 30.01 in North 3.0 mph 18.0 mph 38 % 0.00 in
17:46 71.8 °F 44.8 °F 30.01 in NW 8.0 mph 14.0 mph 38 % 0.00 in
17:51 71.6 °F 44.6 °F 30.01 in NW 5.0 mph 15.0 mph 38 % 0.00 in
17:56 72.0 °F 45.0 °F 30.01 in NW 7.0 mph 15.0 mph 38 % 0.00 in
18:01 72.1 °F 45.1 °F 30.01 in NNW 4.0 mph 15.0 mph 38 % 0.00 in
18:06 72.0 °F 44.2 °F 30.01 in WNW 4.0 mph 15.0 mph 37 % 0.00 in
18:11 72.0 °F 45.0 °F 30.01 in NW 5.0 mph 15.0 mph 38 % 0.00 in
18:16 71.8 °F 43.3 °F 30.01 in NNW 8.0 mph 15.0 mph 36 % 0.00 in
18:21 71.8 °F 43.3 °F 30.02 in WNW 9.0 mph 13.0 mph 36 % 0.00 in
18:31 71.8 °F 43.3 °F 30.02 in NW 8.0 mph 16.0 mph 36 % 0.00 in
18:36 71.4 °F 42.3 °F 30.02 in NNW 8.0 mph 16.0 mph 35 % 0.00 in
18:41 71.2 °F 42.3 °F 30.03 in NW 5.0 mph 15.0 mph 35 % 0.00 in
18:46 71.2 °F 42.3 °F 30.03 in NW 3.0 mph 15.0 mph 35 % 0.00 in
18:51 71.1 °F 42.1 °F 30.03 in WNW 6.0 mph 14.0 mph 35 % 0.00 in
18:56 71.1 °F 42.8 °F 30.03 in NW 7.0 mph 14.0 mph 36 % 0.00 in
19:01 70.9 °F 42.6 °F 30.03 in WNW 9.0 mph 13.0 mph 36 % 0.00 in
19:06 70.7 °F 42.4 °F 30.03 in NNW 6.0 mph 14.0 mph 36 % 0.00 in
19:11 70.5 °F 42.3 °F 30.03 in NNW 5.0 mph 14.0 mph 36 % 0.00 in
19:16 70.3 °F 42.1 °F 30.04 in NW 5.0 mph 14.0 mph 36 % 0.00 in
19:21 70.0 °F 41.7 °F 30.03 in WNW 7.0 mph 12.0 mph 36 % 0.00 in
19:26 69.6 °F 41.5 °F 30.04 in NNW 4.0 mph 12.0 mph 36 % 0.00 in
19:31 69.3 °F 41.9 °F 30.04 in NW 4.0 mph 12.0 mph 37 % 0.00 in
19:36 69.1 °F 41.7 °F 30.04 in NNW 4.0 mph 12.0 mph 37 % 0.00 in
19:41 68.5 °F 41.2 °F 30.04 in NNW 2.0 mph 9.0 mph 37 % 0.00 in
19:46 68.4 °F 41.7 °F 30.04 in NW 3.0 mph 8.0 mph 38 % 0.00 in
19:51 68.2 °F 41.5 °F 30.05 in NW 2.0 mph 8.0 mph 38 % 0.00 in
19:56 67.8 °F 41.9 °F 30.05 in NW 1.0 mph 8.0 mph 39 % 0.00 in
20:01 67.5 °F 42.3 °F 30.05 in NW 5.0 mph 7.0 mph 40 % 0.00 in
20:06 67.5 °F 41.7 °F 30.05 in NW 3.0 mph 7.0 mph 39 % 0.00 in
20:11 67.3 °F 41.5 °F 30.05 in NW 3.0 mph 7.0 mph 39 % 0.00 in
20:16 67.3 °F 42.1 °F 30.06 in NW 2.0 mph 8.0 mph 40 % 0.00 in
20:21 67.1 °F 41.9 °F 30.06 in NW 2.0 mph 8.0 mph 40 % 0.00 in
20:26 66.9 °F 41.9 °F 30.06 in NW 2.0 mph 8.0 mph 40 % 0.00 in
20:31 66.7 °F 42.3 °F 30.06 in NW 4.0 mph 7.0 mph 41 % 0.00 in
20:36 66.4 °F 41.9 °F 30.06 in NW 2.0 mph 6.0 mph 41 % 0.00 in
20:42 66.4 °F 42.6 °F 30.06 in NW 1.0 mph 6.0 mph 42 % 0.00 in
20:43 66.2 °F 42.4 °F 30.06 in NNW 1.0 mph 6.0 mph 42 % 0.00 in
20:47 66.0 °F 42.3 °F 30.07 in NW 1.0 mph 6.0 mph 42 % 0.00 in
20:50 65.8 °F 42.8 °F 30.07 in NNW 2.0 mph 4.0 mph 43 % 0.00 in
20:55 65.7 °F 42.6 °F 30.07 in NW 2.0 mph 5.0 mph 43 % 0.00 in
21:00 65.5 °F 42.4 °F 30.07 in North 2.0 mph 5.0 mph 43 % 0.00 in
21:05 65.1 °F 42.6 °F 30.08 in Calm   5.0 mph 44 % 0.00 in
21:10 64.9 °F 42.4 °F 30.08 in NW 1.0 mph 4.0 mph 44 % 0.00 in
21:15 64.6 °F 42.8 °F 30.08 in WNW 1.0 mph 3.0 mph 45 % 0.00 in
21:20 64.0 °F 42.8 °F 30.09 in Calm   3.0 mph 46 % 0.00 in
21:25 63.3 °F 42.8 °F 30.09 in Calm   1.0 mph 47 % 0.00 in
21:30 62.8 °F 42.8 °F 30.09 in Calm   1.0 mph 48 % 0.00 in
21:31 62.8 °F 42.8 °F 30.09 in Calm   1.0 mph 48 % 0.00 in
21:36 62.2 °F 43.3 °F 30.09 in Calm   1.0 mph 50 % 0.00 in
21:41 61.9 °F 43.0 °F 30.09 in Calm   1.0 mph 50 % 0.00 in
21:46 61.3 °F 43.0 °F 30.10 in Calm   1.0 mph 51 % 0.00 in
21:51 60.6 °F 43.3 °F 30.10 in Calm   1.0 mph 53 % 0.00 in
21:56 60.3 °F 43.5 °F 30.10 in Calm   1.0 mph 54 % 0.00 in
22:01 59.7 °F 43.5 °F 30.10 in Calm   1.0 mph 55 % 0.00 in
22:06 59.2 °F 43.0 °F 30.10 in Calm   1.0 mph 55 % 0.00 in
22:11 58.6 °F 43.5 °F 30.10 in Calm     57 % 0.00 in
22:16 58.5 °F 43.7 °F 30.11 in Calm     58 % 0.00 in
22:21 57.9 °F 43.7 °F 30.10 in Calm     59 % 0.00 in
22:26 57.6 °F 43.3 °F 30.10 in Calm     59 % 0.00 in
22:31 57.0 °F 43.7 °F 30.11 in Calm     61 % 0.00 in
22:36 57.0 °F 43.7 °F 30.11 in Calm     61 % 0.00 in
22:41 56.8 °F 43.9 °F 30.11 in Calm     62 % 0.00 in
22:46 56.5 °F 43.7 °F 30.11 in Calm     62 % 0.00 in
22:51 56.1 °F 44.1 °F 30.11 in Calm     64 % 0.00 in
22:56 55.9 °F 43.9 °F 30.11 in Calm     64 % 0.00 in
23:01 55.6 °F 44.1 °F 30.11 in Calm     65 % 0.00 in
23:06 55.6 °F 44.8 °F 30.11 in Calm     67 % 0.00 in
23:11 55.4 °F 44.2 °F 30.11 in Calm     66 % 0.00 in
23:16 55.2 °F 44.8 °F 30.11 in Calm     68 % 0.00 in
23:21 55.4 °F 45.0 °F 30.12 in Calm     68 % 0.00 in
23:26 55.4 °F 45.0 °F 30.12 in Calm     68 % 0.00 in
23:32 55.2 °F 45.1 °F 30.12 in Calm     69 % 0.00 in
23:37 55.2 °F 45.7 °F 30.12 in Calm     70 % 0.00 in
23:52 55.0 °F 45.1 °F 30.12 in Calm   1.0 mph 69 % 0.00 in
Spring, Texas: Villages of Bridgestone
Compliments of Weather Underground - 2.75 mb

Script developed by  Jim McMurry - jmcmurry@mwt.net Adapted for the template by  Wim van der Kuil - Leuven-Template.eu

You find our weather info also at:

UK Metoffice

WeatherCloud

Weather Underground

Mid-South Weather Network

AWEKAS

Citizen Weather Observer Program (CWOP)

HAMweather, WeatherForYou, PWS Weather

Equipment we use:

Weather-station
Davis Vantage Vue

Weather-program
Meteohub

Weather-server
Debian 7.9 x86 (Guest)

Provider
DreamHost

Davis Vantage Vue

Meteohub

Debian 7.9 x86 (Guest)

DreamHost